createdAt,value
2023-01-03T00:01:21.819Z,87.55
2023-01-03T00:03:50.406Z,87.35
2023-01-03T00:06:19.142Z,87.36
2023-01-03T00:08:48.891Z,87.37
2023-01-03T00:11:20.265Z,87.45
2023-01-03T00:13:47.042Z,87.06
2023-01-03T00:16:18.646Z,86.33
2023-01-03T00:18:46.900Z,86.51
2023-01-03T00:21:14.848Z,85.77
2023-01-03T00:23:42.626Z,85.08
2023-01-03T00:26:13.177Z,84.53
2023-01-03T00:28:41.012Z,84.15
2023-01-03T00:31:09.300Z,84.48
2023-01-03T00:33:38.084Z,83.90
2023-01-03T00:36:08.127Z,83.60
2023-01-03T00:38:36.703Z,82.92
2023-01-03T00:41:06.212Z,82.53
2023-01-03T00:43:35.959Z,82.94
2023-01-03T00:46:04.688Z,82.74
2023-01-03T00:48:33.403Z,83.26
2023-01-03T00:51:07.164Z,83.54
2023-01-03T00:53:37.141Z,83.79
2023-01-03T00:56:06.172Z,84.31
2023-01-03T00:58:36.238Z,84.23
2023-01-03T01:01:08.073Z,84.11
2023-01-03T01:03:37.675Z,84.26
2023-01-03T01:06:12.694Z,83.95
2023-01-03T01:08:40.461Z,83.92
2023-01-03T01:11:08.616Z,83.19
2023-01-03T01:13:38.317Z,83.13
2023-01-03T01:16:08.899Z,83.47
2023-01-03T01:18:38.022Z,83.17
2023-01-03T01:21:07.333Z,82.98
2023-01-03T01:23:37.189Z,83.20
2023-01-03T01:26:06.235Z,83.27
2023-01-03T01:28:34.739Z,83.58
2023-01-03T01:31:06.244Z,83.11
2023-01-03T01:33:35.657Z,83.73
2023-01-03T01:36:07.265Z,83.74
2023-01-03T01:38:35.270Z,83.73
2023-01-03T01:41:05.167Z,84.12
2023-01-03T01:43:59.185Z,84.37
2023-01-03T01:46:32.435Z,85.19
2023-01-03T01:49:04.271Z,85.14
2023-01-03T01:51:35.409Z,84.90
2023-01-03T01:54:05.411Z,85.72
2023-01-03T01:56:37.528Z,85.71
2023-01-03T01:59:06.440Z,85.38
2023-01-03T02:01:36.793Z,85.70
2023-01-03T02:04:07.571Z,85.44
2023-01-03T02:06:35.582Z,85.45
2023-01-03T02:09:03.394Z,85.11
2023-01-03T02:11:39.632Z,85.02
2023-01-03T02:14:26.772Z,85.56
2023-01-03T02:17:08.736Z,85.96
2023-01-03T02:20:05.265Z,85.18
2023-01-03T02:22:52.314Z,85.32
2023-01-03T02:25:58.737Z,85.36
2023-01-03T02:29:03.017Z,85.45
2023-01-03T02:31:39.901Z,85.89
2023-01-03T02:34:21.229Z,86.27
2023-01-03T02:37:01.550Z,86.31
2023-01-03T02:39:40.901Z,85.94
2023-01-03T02:42:32.566Z,86.77
2023-01-03T02:45:09.169Z,86.87
2023-01-03T02:47:45.309Z,86.41
2023-01-03T02:50:14.769Z,86.65
2023-01-03T02:52:44.981Z,87.00
2023-01-03T02:55:17.551Z,86.92
2023-01-03T02:57:50.880Z,87.01
2023-01-03T03:00:25.192Z,86.93
2023-01-03T03:02:59.791Z,87.28
2023-01-03T03:05:33.629Z,87.90
2023-01-03T03:08:01.461Z,87.87
2023-01-03T03:10:47.184Z,87.76
2023-01-03T03:13:22.901Z,88.16
2023-01-03T03:15:59.046Z,88.29
2023-01-03T03:18:38.394Z,89.09
2023-01-03T03:21:28.087Z,88.50
2023-01-03T03:24:33.039Z,88.67
2023-01-03T03:27:24.438Z,88.96
2023-01-03T03:29:54.310Z,88.77
2023-01-03T03:32:25.796Z,88.87
2023-01-03T03:34:58.377Z,88.43
2023-01-03T03:37:28.748Z,88.77
2023-01-03T03:40:14.563Z,88.79
2023-01-03T03:43:05.926Z,89.02
2023-01-03T03:45:38.825Z,89.14
2023-01-03T03:48:12.944Z,89.03
2023-01-03T03:50:46.466Z,89.03
2023-01-03T03:53:17.125Z,88.92
2023-01-03T03:55:50.410Z,89.42
2023-01-03T03:58:21.622Z,89.05
2023-01-03T04:00:52.349Z,89.26
2023-01-03T04:03:22.253Z,89.20
2023-01-03T04:05:55.180Z,89.08
2023-01-03T04:08:23.213Z,89.65
2023-01-03T04:10:51.525Z,89.97
2023-01-03T04:13:19.350Z,89.57
2023-01-03T04:15:47.149Z,89.80
2023-01-03T04:18:14.903Z,89.40
2023-01-03T04:20:42.670Z,89.50
2023-01-03T04:23:11.807Z,89.62
2023-01-03T04:25:39.600Z,89.88
2023-01-03T04:28:07.361Z,89.88
2023-01-03T04:30:35.083Z,90.15
2023-01-03T04:33:05.211Z,90.08
2023-01-03T04:35:33.036Z,90.10
2023-01-03T04:38:00.929Z,90.10
2023-01-03T04:40:30.115Z,90.06
2023-01-03T04:43:15.797Z,89.87
2023-01-03T04:45:43.630Z,90.33
2023-01-03T04:48:11.717Z,90.37
2023-01-03T04:50:39.441Z,91.24
2023-01-03T04:53:07.708Z,90.96
2023-01-03T04:55:36.787Z,90.52
2023-01-03T04:58:04.519Z,91.09
2023-01-03T05:00:32.256Z,91.06
2023-01-03T05:02:59.985Z,91.56
2023-01-03T05:05:27.790Z,91.70
2023-01-03T05:07:55.668Z,90.85
2023-01-03T05:10:23.449Z,90.97
2023-01-03T05:13:00.580Z,90.78
2023-01-03T05:15:29.057Z,91.20
2023-01-03T05:17:56.958Z,91.60
2023-01-03T05:20:43.209Z,91.37
2023-01-03T05:23:31.954Z,91.50
2023-01-03T05:26:00.535Z,92.01
2023-01-03T05:28:30.149Z,91.34
2023-01-03T05:30:58.775Z,92.44
2023-01-03T05:33:26.702Z,91.83
2023-01-03T05:35:54.514Z,92.65
2023-01-03T05:38:23.784Z,92.30
2023-01-03T05:40:52.327Z,92.40
2023-01-03T05:43:20.117Z,92.57
2023-01-03T05:45:52.968Z,93.05
2023-01-03T05:48:21.498Z,92.78
2023-01-03T05:50:50.960Z,92.63
2023-01-03T05:53:19.046Z,92.66
2023-01-03T05:55:46.840Z,92.44
2023-01-03T05:58:14.603Z,92.15
2023-01-03T06:00:42.435Z,92.77
2023-01-03T06:03:11.584Z,93.63
2023-01-03T06:05:43.270Z,93.73
2023-01-03T06:08:14.006Z,92.95
2023-01-03T06:10:41.885Z,92.58
2023-01-03T06:13:09.961Z,92.04
2023-01-03T06:15:37.719Z,93.11
2023-01-03T06:18:04.649Z,93.29
2023-01-03T06:20:33.767Z,94.34
2023-01-03T06:23:01.501Z,93.50
2023-01-03T06:25:29.515Z,93.28
2023-01-03T06:27:57.301Z,93.58
2023-01-03T06:30:25.172Z,94.71
2023-01-03T06:32:53.013Z,94.53
2023-01-03T06:35:20.856Z,93.19
2023-01-03T06:37:49.931Z,93.86
2023-01-03T06:40:19.296Z,93.40
2023-01-03T06:42:47.054Z,93.68
2023-01-03T06:45:33.375Z,92.53
2023-01-03T06:48:22.673Z,94.66
2023-01-03T06:51:07.985Z,94.20
2023-01-03T06:53:39.679Z,94.50
2023-01-03T06:56:09.585Z,93.10
2023-01-03T06:58:37.933Z,93.54
2023-01-03T07:01:07.116Z,93.19
2023-01-03T07:03:35.013Z,92.63
2023-01-03T07:06:03.136Z,93.77
2023-01-03T07:08:31.013Z,92.91
2023-01-03T07:11:00.177Z,92.98
2023-01-03T07:13:45.446Z,91.82
2023-01-03T07:16:15.085Z,91.87
2023-01-03T07:18:43.131Z,92.91
2023-01-03T07:21:11.244Z,92.24
2023-01-03T07:23:39.450Z,92.24
2023-01-03T07:26:09.061Z,93.00
2023-01-03T07:28:36.943Z,93.63
2023-01-03T07:31:07.583Z,92.81
2023-01-03T07:33:37.249Z,92.58
2023-01-03T07:36:11.915Z,91.89
2023-01-03T07:38:40.874Z,92.99
2023-01-03T07:41:11.105Z,92.04
2023-01-03T07:43:40.690Z,93.30
2023-01-03T07:46:11.359Z,93.40
2023-01-03T07:48:39.786Z,93.22
2023-01-03T07:51:08.813Z,93.29
2023-01-03T07:53:38.814Z,92.90
2023-01-03T07:56:12.904Z,93.01
2023-01-03T07:58:44.504Z,94.24
2023-01-03T08:01:14.081Z,94.43
2023-01-03T08:03:42.593Z,93.57
2023-01-03T08:06:12.474Z,93.91
2023-01-03T08:08:40.755Z,93.92
2023-01-03T08:11:29.104Z,93.55
2023-01-03T08:13:58.286Z,94.16
2023-01-03T08:16:26.462Z,93.37
2023-01-03T08:18:54.278Z,92.85
2023-01-03T08:21:22.023Z,93.04
2023-01-03T08:23:49.770Z,92.53
2023-01-03T08:26:18.892Z,92.14
2023-01-03T08:28:46.695Z,92.59
2023-01-03T08:31:19.506Z,92.71
2023-01-03T08:33:51.340Z,92.73
2023-01-03T08:36:20.316Z,91.90
2023-01-03T08:38:51.118Z,92.48
2023-01-03T08:41:23.219Z,91.75
2023-01-03T08:43:51.109Z,92.58
2023-01-03T08:46:20.524Z,91.55
2023-01-03T08:48:48.889Z,91.98
2023-01-03T08:51:16.797Z,91.01
2023-01-03T08:53:44.629Z,91.68
2023-01-03T08:56:12.506Z,90.82
2023-01-03T08:58:40.306Z,90.65
2023-01-03T09:01:08.372Z,90.46
2023-01-03T09:03:37.725Z,91.44
2023-01-03T09:06:06.473Z,91.70
2023-01-03T09:08:35.282Z,90.63
2023-01-03T09:11:06.402Z,91.99
2023-01-03T09:13:34.888Z,91.48
2023-01-03T09:16:03.305Z,91.10
2023-01-03T09:18:31.251Z,91.20
2023-01-03T09:21:00.703Z,90.75
2023-01-03T09:23:28.409Z,90.53
2023-01-03T09:25:56.324Z,90.14
2023-01-03T09:28:24.819Z,90.21
2023-01-03T09:30:52.687Z,88.94
2023-01-03T09:33:20.596Z,89.34
2023-01-03T09:35:48.588Z,89.00
2023-01-03T09:38:17.784Z,89.06
2023-01-03T09:40:47.611Z,89.33
2023-01-03T09:43:24.817Z,87.71
2023-01-03T09:45:58.184Z,86.97
2023-01-03T09:48:30.700Z,86.96
2023-01-03T09:51:18.212Z,86.47
2023-01-03T09:54:05.293Z,86.14
2023-01-03T09:56:51.163Z,85.85
2023-01-03T09:59:36.882Z,86.01
2023-01-03T10:02:40.832Z,85.61
2023-01-03T10:05:24.944Z,84.96
2023-01-03T10:08:15.804Z,84.70
2023-01-03T10:10:52.815Z,84.21
2023-01-03T10:13:32.608Z,84.09
2023-01-03T10:16:08.005Z,83.09
2023-01-03T10:18:50.319Z,84.08
2023-01-03T10:21:27.035Z,82.68
2023-01-03T10:23:56.139Z,82.81
2023-01-03T10:26:32.609Z,81.69
2023-01-03T10:29:01.564Z,81.75
2023-01-03T10:31:47.122Z,81.67
2023-01-03T10:34:14.954Z,81.86
2023-01-03T10:36:42.810Z,81.64
2023-01-03T10:39:12.359Z,81.17
2023-01-03T10:41:44.566Z,80.92
2023-01-03T10:44:25.486Z,81.24
2023-01-03T10:46:55.154Z,81.08
2023-01-03T10:49:28.059Z,80.94
2023-01-03T10:52:01.094Z,80.56
2023-01-03T10:54:36.984Z,80.60
2023-01-03T10:57:06.824Z,80.38
2023-01-03T10:59:35.679Z,79.80
2023-01-03T11:02:16.701Z,79.29
2023-01-03T11:04:45.455Z,78.72
2023-01-03T11:07:15.875Z,78.74
2023-01-03T11:09:51.279Z,76.34
2023-01-03T11:12:27.838Z,77.93
2023-01-03T11:14:58.037Z,77.97
2023-01-03T11:17:27.179Z,77.54
2023-01-03T11:19:56.341Z,77.60
2023-01-03T11:22:37.955Z,77.52
2023-01-03T11:25:26.522Z,77.54
2023-01-03T11:28:25.770Z,76.93
2023-01-03T11:31:03.600Z,77.73
2023-01-03T11:33:56.927Z,75.67
2023-01-03T11:36:43.822Z,77.00
2023-01-03T11:39:31.187Z,76.60
2023-01-03T11:42:13.488Z,76.67
2023-01-03T11:44:59.344Z,75.46
2023-01-03T11:47:34.982Z,75.60
2023-01-03T11:50:16.762Z,74.89
2023-01-03T11:52:51.487Z,74.18
2023-01-03T11:55:42.507Z,76.14
2023-01-03T11:58:42.767Z,75.79
2023-01-03T12:01:25.001Z,76.43
2023-01-03T12:04:07.447Z,75.57
2023-01-03T12:06:43.148Z,75.35
2023-01-03T12:09:22.482Z,73.70
2023-01-03T12:12:21.370Z,74.15
2023-01-03T12:14:53.508Z,73.65
2023-01-03T12:17:28.718Z,72.85
2023-01-03T12:20:02.096Z,73.80
2023-01-03T12:22:36.915Z,74.99
2023-01-03T12:25:17.352Z,74.65
2023-01-03T12:27:49.887Z,74.03
2023-01-03T12:30:32.360Z,73.47
2023-01-03T12:33:11.166Z,73.54
2023-01-03T12:35:43.447Z,72.03
2023-01-03T12:38:12.367Z,74.12
2023-01-03T12:40:47.549Z,74.29
2023-01-03T12:43:25.752Z,75.50
2023-01-03T12:46:00.532Z,74.38
2023-01-03T12:48:44.788Z,74.66
2023-01-03T12:51:15.117Z,74.76
2023-01-03T12:53:47.971Z,73.75
2023-01-03T12:56:46.591Z,74.23
2023-01-03T12:59:35.172Z,73.80
2023-01-03T13:02:16.896Z,75.26
2023-01-03T13:04:50.562Z,74.78
2023-01-03T13:07:23.083Z,75.06
2023-01-03T13:10:00.997Z,75.43
2023-01-03T13:12:31.305Z,75.74
2023-01-03T13:15:15.841Z,75.15
2023-01-03T13:17:45.820Z,74.94
2023-01-03T13:20:28.845Z,74.92
2023-01-03T13:22:57.105Z,74.54
2023-01-03T13:25:39.949Z,74.51
2023-01-03T13:28:24.745Z,74.82
2023-01-03T13:31:46.400Z,74.88
2023-01-03T13:34:32.285Z,74.26
2023-01-03T13:37:19.546Z,74.96
2023-01-03T13:40:11.503Z,74.70
2023-01-03T13:42:41.161Z,74.54
2023-01-03T13:45:56.745Z,74.71
2023-01-03T13:48:39.845Z,74.89
2023-01-03T13:51:37.494Z,74.41
2023-01-03T13:54:28.024Z,74.84
2023-01-03T13:57:04.110Z,74.31
2023-01-03T13:59:43.819Z,74.28
2023-01-03T14:02:50.833Z,73.91
2023-01-03T14:05:43.611Z,74.15
2023-01-03T14:08:35.380Z,74.24
2023-01-03T14:11:28.877Z,73.83
2023-01-03T14:14:02.217Z,74.85
2023-01-03T14:16:40.839Z,73.87
2023-01-03T14:19:20.398Z,74.47
2023-01-03T14:21:51.581Z,74.91
2023-01-03T14:24:24.318Z,74.71
2023-01-03T14:26:54.720Z,74.24
2023-01-03T14:29:25.251Z,74.05
2023-01-03T14:31:56.042Z,74.00
2023-01-03T14:34:34.112Z,73.58
2023-01-03T14:37:04.806Z,74.82
2023-01-03T14:42:03.534Z,73.87
2023-01-03T14:44:31.737Z,73.13
2023-01-03T14:47:03.758Z,73.83
2023-01-03T14:49:42.523Z,73.54
2023-01-03T14:52:19.325Z,73.74
2023-01-03T14:54:49.812Z,73.00
2023-01-03T14:57:22.538Z,73.27
2023-01-03T14:59:52.476Z,73.29
2023-01-03T15:02:21.495Z,72.89
2023-01-03T15:04:54.385Z,73.20
2023-01-03T15:07:29.465Z,73.20
2023-01-03T15:10:07.799Z,72.94
2023-01-03T15:12:41.112Z,73.18
2023-01-03T15:15:19.459Z,72.93
2023-01-03T15:17:48.878Z,72.41
2023-01-03T15:20:19.902Z,72.83
2023-01-03T15:22:48.099Z,72.99
2023-01-03T15:25:22.376Z,72.71
2023-01-03T15:27:51.838Z,73.29
2023-01-03T15:30:26.283Z,73.12
2023-01-03T15:32:59.212Z,73.41
2023-01-03T15:35:37.851Z,73.31
2023-01-03T15:38:12.165Z,73.51
2023-01-03T15:40:40.942Z,73.25
2023-01-03T15:43:23.186Z,74.02
2023-01-03T15:45:59.743Z,73.59
2023-01-03T15:48:28.175Z,73.76
2023-01-03T15:50:57.088Z,74.36
2023-01-03T15:53:28.963Z,74.67
2023-01-03T15:56:00.200Z,74.60
2023-01-03T15:58:30.597Z,75.64
2023-01-03T16:00:59.778Z,75.42
2023-01-03T16:03:32.189Z,75.59
2023-01-03T16:06:00.558Z,75.76
2023-01-03T16:08:30.931Z,76.39
2023-01-03T16:11:01.426Z,76.95
2023-01-03T16:13:35.332Z,77.30
2023-01-03T16:16:03.495Z,78.07
2023-01-03T16:18:37.519Z,78.25
2023-01-03T16:21:06.268Z,78.42
2023-01-03T16:23:35.858Z,78.85
2023-01-03T16:26:04.260Z,79.25
2023-01-03T16:28:33.386Z,79.12
2023-01-03T16:31:03.655Z,80.12
2023-01-03T16:33:34.767Z,79.51
2023-01-03T16:36:03.086Z,79.53
2023-01-03T16:38:31.917Z,79.81
2023-01-03T16:41:00.676Z,79.90
2023-01-03T16:43:28.717Z,80.32
2023-01-03T16:46:00.535Z,80.76
2023-01-03T16:48:38.009Z,80.87
2023-01-03T16:51:06.496Z,80.91
2023-01-03T16:53:38.432Z,80.80
2023-01-03T16:56:08.445Z,81.04
2023-01-03T16:58:36.275Z,80.99
2023-01-03T17:01:06.251Z,80.90
2023-01-03T17:03:39.525Z,80.55
2023-01-03T17:06:22.851Z,80.40
2023-01-03T17:08:50.924Z,80.46
2023-01-03T17:11:19.222Z,80.62
2023-01-03T17:13:49.384Z,80.76
2023-01-03T17:16:22.747Z,80.31
2023-01-03T17:18:51.215Z,80.18
2023-01-03T17:21:24.150Z,79.96
2023-01-03T17:23:53.831Z,79.97
2023-01-03T17:26:23.932Z,79.60
2023-01-03T17:28:52.925Z,78.89
2023-01-03T17:31:24.224Z,79.04
2023-01-03T17:33:52.764Z,78.94
2023-01-03T17:36:25.285Z,79.04
2023-01-03T17:38:54.732Z,79.58
2023-01-03T17:41:26.536Z,79.64
2023-01-03T17:43:54.704Z,79.81
2023-01-03T17:46:43.058Z,79.80
2023-01-03T17:49:26.198Z,79.80
2023-01-03T17:51:56.592Z,80.25
2023-01-03T17:54:27.321Z,80.04
2023-01-03T17:56:57.987Z,80.36
2023-01-03T17:59:26.127Z,80.33
2023-01-03T18:01:56.881Z,80.56
2023-01-03T18:04:44.108Z,80.77
2023-01-03T18:07:19.292Z,80.49
2023-01-03T18:09:48.433Z,80.75
2023-01-03T18:12:17.858Z,80.23
2023-01-03T18:14:46.291Z,79.94
2023-01-03T18:17:26.799Z,80.20
2023-01-03T18:19:54.757Z,80.40
2023-01-03T18:22:23.041Z,80.20
2023-01-03T18:24:52.079Z,80.82
2023-01-03T18:27:21.444Z,80.97
2023-01-03T18:29:53.444Z,81.29
2023-01-03T18:32:29.277Z,81.02
2023-01-03T18:34:59.221Z,81.32
2023-01-03T18:37:33.416Z,81.51
2023-01-03T18:40:03.331Z,80.94
2023-01-03T18:42:49.296Z,81.37
2023-01-03T18:45:17.381Z,82.45
2023-01-03T18:47:47.851Z,82.62
2023-01-03T18:50:20.526Z,83.26
2023-01-03T18:52:54.317Z,83.55
2023-01-03T18:55:25.492Z,84.34
2023-01-03T18:58:29.358Z,84.30
2023-01-03T19:01:00.168Z,84.29
2023-01-03T19:03:35.297Z,84.73
2023-01-03T19:06:04.632Z,84.69
2023-01-03T19:08:34.683Z,84.78
2023-01-03T19:11:07.648Z,84.60
2023-01-03T19:13:51.628Z,84.67
2023-01-03T19:16:21.929Z,85.34
2023-01-03T19:19:05.005Z,85.43
2023-01-03T19:21:36.124Z,84.72
2023-01-03T19:24:08.305Z,84.97
2023-01-03T19:26:43.266Z,84.68
2023-01-03T19:29:22.450Z,84.06
2023-01-03T19:31:52.758Z,84.09
2023-01-03T19:34:24.459Z,83.75
2023-01-03T19:36:52.918Z,84.17
2023-01-03T19:39:26.359Z,84.49
2023-01-03T19:42:16.268Z,84.19
2023-01-03T19:44:45.145Z,84.19
2023-01-03T19:47:15.671Z,84.25
2023-01-03T19:49:47.108Z,84.22
2023-01-03T19:52:16.599Z,84.10
2023-01-03T19:54:45.157Z,83.94
2023-01-03T19:57:20.309Z,84.02
2023-01-03T19:59:52.824Z,83.39
2023-01-03T20:02:36.002Z,83.53
2023-01-03T20:05:14.352Z,84.66
2023-01-03T20:07:42.872Z,84.37
2023-01-03T20:10:16.066Z,83.96
2023-01-03T20:12:46.784Z,83.70
2023-01-03T20:15:26.488Z,84.30
2023-01-03T20:17:55.470Z,84.32
2023-01-03T20:20:30.392Z,84.59
2023-01-03T20:23:05.787Z,83.78
2023-01-03T20:25:37.408Z,84.32
2023-01-03T20:28:07.003Z,83.93
2023-01-03T20:30:36.402Z,84.23
2023-01-03T20:33:04.870Z,83.46
2023-01-03T20:36:09.767Z,84.32
2023-01-03T20:38:27.813Z,83.45
2023-01-03T20:52:02.339Z,83.45
2023-01-03T20:54:41.757Z,82.92
2023-01-03T20:57:16.262Z,83.25
2023-01-03T20:59:44.714Z,82.21
2023-01-03T21:02:14.015Z,82.66
2023-01-03T21:04:42.712Z,82.35
2023-01-03T21:07:26.812Z,83.07
2023-01-03T21:09:55.577Z,83.42
2023-01-03T21:12:23.894Z,83.69
2023-01-03T21:14:52.402Z,83.41
2023-01-03T21:17:20.730Z,83.43
2023-01-03T21:19:52.299Z,84.65
2023-01-03T21:22:22.098Z,84.14
2023-01-03T21:24:57.394Z,84.40
2023-01-03T21:27:28.903Z,83.63
2023-01-03T21:29:57.015Z,83.35
2023-01-03T21:32:25.185Z,82.90
2023-01-03T21:34:53.259Z,82.40
2023-01-03T21:37:21.229Z,81.73
2023-01-03T21:39:49.605Z,81.91
2023-01-03T21:42:34.948Z,82.36
2023-01-03T21:45:04.877Z,82.18
2023-01-03T21:47:32.848Z,82.37
2023-01-03T21:50:00.870Z,82.26
2023-01-03T21:52:28.920Z,82.35
2023-01-03T21:54:56.994Z,82.48
2023-01-03T21:57:24.915Z,82.26
2023-01-03T21:59:52.774Z,82.77
2023-01-03T22:02:36.154Z,82.43
2023-01-03T22:05:04.859Z,83.06
2023-01-03T22:07:32.673Z,82.29
2023-01-03T22:10:19.289Z,82.58
2023-01-03T22:12:49.911Z,82.20
2023-01-03T22:15:18.624Z,82.90
2023-01-03T22:17:48.165Z,82.94
2023-01-03T22:20:18.637Z,83.30
2023-01-03T22:22:48.532Z,83.35
2023-01-03T22:25:18.423Z,82.93
2023-01-03T22:27:46.797Z,82.34
2023-01-03T22:30:17.060Z,82.30
2023-01-03T22:32:45.934Z,82.37
2023-01-03T22:35:17.701Z,82.82
2023-01-03T22:37:45.864Z,82.73
2023-01-03T22:40:16.860Z,82.68
2023-01-03T22:42:44.688Z,82.51
2023-01-03T22:45:17.852Z,82.68
2023-01-03T22:47:46.137Z,82.42
2023-01-03T22:50:15.484Z,82.28
2023-01-03T22:52:43.536Z,82.52
2023-01-03T22:55:11.668Z,83.19
2023-01-03T22:57:39.577Z,82.77
2023-01-03T23:00:11.662Z,83.10
2023-01-03T23:02:42.089Z,82.76
2023-01-03T23:05:10.696Z,82.83
2023-01-03T23:07:44.948Z,83.45
2023-01-03T23:10:13.270Z,83.50
2023-01-03T23:12:59.386Z,83.83
2023-01-03T23:15:28.939Z,84.47
2023-01-03T23:17:57.307Z,83.87
2023-01-03T23:20:27.301Z,84.33
2023-01-03T23:23:00.145Z,83.93
2023-01-03T23:25:28.331Z,84.53
2023-01-03T23:27:56.387Z,84.55
2023-01-03T23:30:24.455Z,84.37
2023-01-03T23:32:52.583Z,84.16
2023-01-03T23:35:20.684Z,85.01
2023-01-03T23:37:48.937Z,84.16
2023-01-03T23:40:18.365Z,85.69
2023-01-03T23:42:46.224Z,85.46
2023-01-03T23:45:15.794Z,85.42
2023-01-03T23:47:43.839Z,85.80
2023-01-03T23:50:11.874Z,85.73
2023-01-03T23:52:42.147Z,86.14
2023-01-03T23:55:12.886Z,86.42
2023-01-03T23:57:44.908Z,85.86
